sensor_id;sensor_type;location;lat;lon;timestamp;pressure;altitude;pressure_sealevel;temperature;humidity
27144;BME280;14672;50.250;8.312;2024-01-30T00:02:10;100134.81;;;7.04;66.91
27144;BME280;14672;50.250;8.312;2024-01-30T00:04:36;100136.44;;;7.12;66.25
27144;BME280;14672;50.250;8.312;2024-01-30T00:07:02;100143.69;;;7.06;66.13
27144;BME280;14672;50.250;8.312;2024-01-30T00:09:27;100135.22;;;7.02;66.56
27144;BME280;14672;50.250;8.312;2024-01-30T00:11:53;100129.97;;;7.12;65.97
27144;BME280;14672;50.250;8.312;2024-01-30T00:14:19;100122.69;;;7.18;66.30
27144;BME280;14672;50.250;8.312;2024-01-30T00:16:45;100123.47;;;7.25;66.37
27144;BME280;14672;50.250;8.312;2024-01-30T00:19:12;100127.53;;;7.31;66.40
27144;BME280;14672;50.250;8.312;2024-01-30T00:21:38;100130.72;;;7.33;66.87
27144;BME280;14672;50.250;8.312;2024-01-30T00:24:04;100127.91;;;7.33;66.61
27144;BME280;14672;50.250;8.312;2024-01-30T00:26:29;100123.06;;;7.30;66.26
27144;BME280;14672;50.250;8.312;2024-01-30T00:28:55;100133.97;;;7.32;66.11
27144;BME280;14672;50.250;8.312;2024-01-30T00:31:21;100127.13;;;7.15;66.24
27144;BME280;14672;50.250;8.312;2024-01-30T00:33:47;100118.69;;;7.04;65.82
27144;BME280;14672;50.250;8.312;2024-01-30T00:36:13;100125.53;;;7.00;65.95
27144;BME280;14672;50.250;8.312;2024-01-30T00:38:39;100125.13;;;6.94;65.80
27144;BME280;14672;50.250;8.312;2024-01-30T00:41:08;100127.53;;;6.75;65.99
27144;BME280;14672;50.250;8.312;2024-01-30T00:43:34;100129.97;;;6.87;65.70
27144;BME280;14672;50.250;8.312;2024-01-30T00:46:00;100130.38;;;6.92;65.14
27144;BME280;14672;50.250;8.312;2024-01-30T00:48:25;100132.38;;;6.78;65.48
27144;BME280;14672;50.250;8.312;2024-01-30T00:50:51;100133.59;;;6.73;65.46
27144;BME280;14672;50.250;8.312;2024-01-30T00:53:17;100129.16;;;6.72;66.24
27144;BME280;14672;50.250;8.312;2024-01-30T00:55:46;100132.38;;;6.71;66.22
27144;BME280;14672;50.250;8.312;2024-01-30T00:58:12;100141.66;;;6.71;66.53
27144;BME280;14672;50.250;8.312;2024-01-30T01:00:39;100142.47;;;6.79;66.42
27144;BME280;14672;50.250;8.312;2024-01-30T01:03:04;100138.03;;;6.71;66.24
27144;BME280;14672;50.250;8.312;2024-01-30T01:05:30;100125.09;;;6.70;66.65
27144;BME280;14672;50.250;8.312;2024-01-30T01:07:56;100137.22;;;6.74;66.75
27144;BME280;14672;50.250;8.312;2024-01-30T01:10:25;100133.19;;;6.75;66.57
27144;BME280;14672;50.250;8.312;2024-01-30T01:12:51;100134.81;;;6.69;66.28
27144;BME280;14672;50.250;8.312;2024-01-30T01:15:16;100141.28;;;6.73;65.95
27144;BME280;14672;50.250;8.312;2024-01-30T01:17:42;100138.03;;;6.67;66.63
27144;BME280;14672;50.250;8.312;2024-01-30T01:20:08;100136.41;;;6.59;66.37
27144;BME280;14672;50.250;8.312;2024-01-30T01:22:36;100134.78;;;6.47;66.74
27144;BME280;14672;50.250;8.312;2024-01-30T01:25:04;100129.94;;;6.41;67.12
27144;BME280;14672;50.250;8.312;2024-01-30T01:27:32;100137.22;;;6.56;66.46
27144;BME280;14672;50.250;8.312;2024-01-30T01:30:00;100127.50;;;6.50;66.32
27144;BME280;14672;50.250;8.312;2024-01-30T01:32:26;100133.16;;;6.53;65.85
27144;BME280;14672;50.250;8.312;2024-01-30T01:34:51;100126.69;;;6.53;66.31
27144;BME280;14672;50.250;8.312;2024-01-30T01:37:17;100120.22;;;6.45;66.13
27144;BME280;14672;50.250;8.312;2024-01-30T01:39:43;100129.13;;;6.47;66.24
27144;BME280;14672;50.250;8.312;2024-01-30T01:42:09;100121.06;;;6.49;66.62
27144;BME280;14672;50.250;8.312;2024-01-30T01:44:35;100135.16;;;6.42;67.29
27144;BME280;14672;50.250;8.312;2024-01-30T01:47:00;100132.34;;;6.49;67.20
27144;BME280;14672;50.250;8.312;2024-01-30T01:49:28;100119.41;;;6.41;67.00
27144;BME280;14672;50.250;8.312;2024-01-30T01:51:55;100120.66;;;6.40;67.07
27144;BME280;14672;50.250;8.312;2024-01-30T01:54:26;100121.84;;;6.39;66.73
27144;BME280;14672;50.250;8.312;2024-01-30T01:56:53;100120.66;;;6.44;67.02
27144;BME280;14672;50.250;8.312;2024-01-30T01:59:20;100111.75;;;6.42;67.88
27144;BME280;14672;50.250;8.312;2024-01-30T02:01:46;100105.72;;;6.43;67.24
27144;BME280;14672;50.250;8.312;2024-01-30T02:04:16;100112.19;;;6.47;67.52
27144;BME280;14672;50.250;8.312;2024-01-30T02:06:43;100111.38;;;6.47;67.96
27144;BME280;14672;50.250;8.312;2024-01-30T02:09:09;100113.00;;;6.51;67.08
27144;BME280;14672;50.250;8.312;2024-01-30T02:11:35;100108.94;;;6.38;67.11
27144;BME280;14672;50.250;8.312;2024-01-30T02:14:04;100113.38;;;6.39;67.10
27144;BME280;14672;50.250;8.312;2024-01-30T02:16:31;100107.75;;;6.43;67.18
27144;BME280;14672;50.250;8.312;2024-01-30T02:18:57;100101.28;;;6.35;67.26
27144;BME280;14672;50.250;8.312;2024-01-30T02:21:23;100102.53;;;6.48;67.09
27144;BME280;14672;50.250;8.312;2024-01-30T02:23:49;100101.28;;;6.35;67.40
27144;BME280;14672;50.250;8.312;2024-01-30T02:26:16;100111.38;;;6.36;67.50
27144;BME280;14672;50.250;8.312;2024-01-30T02:28:42;100099.66;;;6.27;68.20
27144;BME280;14672;50.250;8.312;2024-01-30T02:31:07;100117.78;;;6.33;67.84
27144;BME280;14672;50.250;8.312;2024-01-30T02:33:33;100100.09;;;6.40;68.76
27144;BME280;14672;50.250;8.312;2024-01-30T02:35:59;100107.34;;;6.44;67.74
27144;BME280;14672;50.250;8.312;2024-01-30T02:38:25;100101.28;;;6.46;68.15
27144;BME280;14672;50.250;8.312;2024-01-30T02:40:52;100106.94;;;6.49;67.41
27144;BME280;14672;50.250;8.312;2024-01-30T02:43:18;100104.09;;;6.42;67.64
27144;BME280;14672;50.250;8.312;2024-01-30T02:45:44;100098.06;;;6.40;66.76
27144;BME280;14672;50.250;8.312;2024-01-30T02:48:10;100108.13;;;6.31;66.53
27144;BME280;14672;50.250;8.312;2024-01-30T02:50:35;100102.47;;;6.20;67.15
27144;BME280;14672;50.250;8.312;2024-01-30T02:53:04;100108.13;;;6.34;67.67
27144;BME280;14672;50.250;8.312;2024-01-30T02:55:30;100096.03;;;6.37;67.26
27144;BME280;14672;50.250;8.312;2024-01-30T02:57:56;100099.28;;;6.46;67.44
27144;BME280;14672;50.250;8.312;2024-01-30T03:00:21;100096.88;;;6.52;67.62
27144;BME280;14672;50.250;8.312;2024-01-30T03:02:47;100085.59;;;6.45;68.01
27144;BME280;14672;50.250;8.312;2024-01-30T03:05:13;100080.72;;;6.38;68.10
27144;BME280;14672;50.250;8.312;2024-01-30T03:07:39;100088.78;;;6.47;68.59
27144;BME280;14672;50.250;8.312;2024-01-30T03:10:05;100085.59;;;6.48;68.18
27144;BME280;14672;50.250;8.312;2024-01-30T03:12:32;100096.06;;;6.58;67.98
27144;BME280;14672;50.250;8.312;2024-01-30T03:14:58;100093.63;;;6.57;67.40
27144;BME280;14672;50.250;8.312;2024-01-30T03:17:24;100088.78;;;6.54;67.96
27144;BME280;14672;50.250;8.312;2024-01-30T03:19:50;100094.44;;;6.54;68.01
27144;BME280;14672;50.250;8.312;2024-01-30T03:22:16;100089.59;;;6.58;68.54
27144;BME280;14672;50.250;8.312;2024-01-30T03:24:42;100085.97;;;6.54;67.89
27144;BME280;14672;50.250;8.312;2024-01-30T03:27:08;100092.03;;;6.52;68.22
27144;BME280;14672;50.250;8.312;2024-01-30T03:29:34;100090.81;;;6.50;68.00
27144;BME280;14672;50.250;8.312;2024-01-30T03:32:00;100088.00;;;6.60;68.64
27144;BME280;14672;50.250;8.312;2024-01-30T03:34:26;100095.66;;;6.67;68.78
27144;BME280;14672;50.250;8.312;2024-01-30T03:36:52;100086.38;;;6.67;68.97
27144;BME280;14672;50.250;8.312;2024-01-30T03:39:18;100088.41;;;6.63;68.76
27144;BME280;14672;50.250;8.312;2024-01-30T03:41:44;100080.34;;;6.68;68.36
27144;BME280;14672;50.250;8.312;2024-01-30T03:44:10;100083.56;;;6.70;68.52
27144;BME280;14672;50.250;8.312;2024-01-30T03:46:36;100094.06;;;6.77;68.32
27144;BME280;14672;50.250;8.312;2024-01-30T03:49:02;100077.13;;;6.77;68.55
27144;BME280;14672;50.250;8.312;2024-01-30T03:51:27;100075.09;;;6.74;68.11
27144;BME280;14672;50.250;8.312;2024-01-30T03:53:53;100077.94;;;6.84;68.27
27144;BME280;14672;50.250;8.312;2024-01-30T03:56:19;100064.59;;;6.78;68.16
27144;BME280;14672;50.250;8.312;2024-01-30T03:58:44;100071.88;;;6.79;68.05
27144;BME280;14672;50.250;8.312;2024-01-30T04:01:16;100078.31;;;6.83;67.92
27144;BME280;14672;50.250;8.312;2024-01-30T04:03:42;100070.22;;;6.85;68.16
27144;BME280;14672;50.250;8.312;2024-01-30T04:06:09;100071.03;;;6.89;68.01
27144;BME280;14672;50.250;8.312;2024-01-30T04:08:35;100073.47;;;6.94;68.48
27144;BME280;14672;50.250;8.312;2024-01-30T04:11:05;100075.91;;;6.92;68.99
27144;BME280;14672;50.250;8.312;2024-01-30T04:13:32;100068.63;;;6.98;68.86
27144;BME280;14672;50.250;8.312;2024-01-30T04:16:01;100073.06;;;6.95;68.87
27144;BME280;14672;50.250;8.312;2024-01-30T04:18:28;100075.50;;;7.04;69.07
27144;BME280;14672;50.250;8.312;2024-01-30T04:20:54;100077.50;;;7.07;68.51
27144;BME280;14672;50.250;8.312;2024-01-30T04:23:20;100074.66;;;7.07;68.88
27144;BME280;14672;50.250;8.312;2024-01-30T04:25:45;100070.63;;;7.01;68.44
27144;BME280;14672;50.250;8.312;2024-01-30T04:28:12;100072.25;;;7.02;67.75
27144;BME280;14672;50.250;8.312;2024-01-30T04:30:39;100080.72;;;6.98;68.16
27144;BME280;14672;50.250;8.312;2024-01-30T04:33:05;100065.78;;;6.98;68.34
27144;BME280;14672;50.250;8.312;2024-01-30T04:35:30;100067.81;;;7.04;68.89
27144;BME280;14672;50.250;8.312;2024-01-30T04:37:56;100066.19;;;7.11;68.86
27144;BME280;14672;50.250;8.312;2024-01-30T04:40:22;100068.59;;;7.19;68.98
27144;BME280;14672;50.250;8.312;2024-01-30T04:42:48;100067.78;;;7.19;69.49
27144;BME280;14672;50.250;8.312;2024-01-30T04:45:14;100071.44;;;7.12;68.63
27144;BME280;14672;50.250;8.312;2024-01-30T04:47:40;100064.56;;;7.06;68.45
27144;BME280;14672;50.250;8.312;2024-01-30T04:50:09;100061.34;;;7.07;68.93
27144;BME280;14672;50.250;8.312;2024-01-30T04:52:35;100064.56;;;7.13;68.58
27144;BME280;14672;50.250;8.312;2024-01-30T04:55:04;100071.03;;;7.10;69.03
27144;BME280;14672;50.250;8.312;2024-01-30T04:57:30;100074.66;;;7.11;68.52
27144;BME280;14672;50.250;8.312;2024-01-30T04:59:57;100069.38;;;7.23;68.91
27144;BME280;14672;50.250;8.312;2024-01-30T05:02:23;100067.41;;;7.02;67.59
27144;BME280;14672;50.250;8.312;2024-01-30T05:04:48;100070.19;;;7.13;68.63
27144;BME280;14672;50.250;8.312;2024-01-30T05:07:14;100075.06;;;7.16;68.53
27144;BME280;14672;50.250;8.312;2024-01-30T05:09:40;100069.44;;;6.95;68.06
27144;BME280;14672;50.250;8.312;2024-01-30T05:12:07;100073.03;;;7.06;68.62
27144;BME280;14672;50.250;8.312;2024-01-30T05:14:32;100077.47;;;7.14;69.41
27144;BME280;14672;50.250;8.312;2024-01-30T05:16:58;100083.13;;;7.14;68.61
27144;BME280;14672;50.250;8.312;2024-01-30T05:19:24;100081.13;;;6.97;67.92
27144;BME280;14672;50.250;8.312;2024-01-30T05:21:50;100079.13;;;6.87;67.98
27144;BME280;14672;50.250;8.312;2024-01-30T05:24:16;100083.16;;;6.86;67.80
27144;BME280;14672;50.250;8.312;2024-01-30T05:26:42;100083.56;;;6.81;68.00
27144;BME280;14672;50.250;8.312;2024-01-30T05:29:07;100075.06;;;6.81;67.79
27144;BME280;14672;50.250;8.312;2024-01-30T05:31:36;100074.69;;;6.96;68.25
27144;BME280;14672;50.250;8.312;2024-01-30T05:34:03;100074.66;;;6.93;68.42
27144;BME280;14672;50.250;8.312;2024-01-30T05:36:28;100079.91;;;6.94;69.42
27144;BME280;14672;50.250;8.312;2024-01-30T05:38:55;100073.47;;;6.94;68.90
27144;BME280;14672;50.250;8.312;2024-01-30T05:41:21;100066.22;;;6.96;69.67
27144;BME280;14672;50.250;8.312;2024-01-30T05:43:50;100068.25;;;6.92;69.38
27144;BME280;14672;50.250;8.312;2024-01-30T05:46:15;100071.88;;;6.96;69.45
27144;BME280;14672;50.250;8.312;2024-01-30T05:48:41;100075.91;;;6.95;68.75
27144;BME280;14672;50.250;8.312;2024-01-30T05:51:08;100076.69;;;6.99;68.98
27144;BME280;14672;50.250;8.312;2024-01-30T05:53:34;100073.88;;;6.99;69.00
27144;BME280;14672;50.250;8.312;2024-01-30T05:56:03;100077.09;;;7.01;69.06
27144;BME280;14672;50.250;8.312;2024-01-30T05:58:32;100074.25;;;6.98;68.26
27144;BME280;14672;50.250;8.312;2024-01-30T06:00:58;100071.84;;;7.00;68.33
27144;BME280;14672;50.250;8.312;2024-01-30T06:03:24;100081.94;;;7.08;69.52
27144;BME280;14672;50.250;8.312;2024-01-30T06:05:50;100085.97;;;7.00;68.04
27144;BME280;14672;50.250;8.312;2024-01-30T06:08:15;100076.69;;;7.06;68.84
27144;BME280;14672;50.250;8.312;2024-01-30T06:10:41;100085.16;;;7.10;69.13
27144;BME280;14672;50.250;8.312;2024-01-30T06:13:07;100087.97;;;7.17;70.07
27144;BME280;14672;50.250;8.312;2024-01-30T06:15:33;100084.34;;;7.20;69.75
27144;BME280;14672;50.250;8.312;2024-01-30T06:17:59;100077.47;;;7.14;69.38
27144;BME280;14672;50.250;8.312;2024-01-30T06:20:24;100073.81;;;7.21;69.16
27144;BME280;14672;50.250;8.312;2024-01-30T06:22:50;100081.50;;;7.20;69.23
27144;BME280;14672;50.250;8.312;2024-01-30T06:25:22;100089.56;;;7.25;68.73
27144;BME280;14672;50.250;8.312;2024-01-30T06:27:51;100084.75;;;7.08;68.83
27144;BME280;14672;50.250;8.312;2024-01-30T06:30:16;100084.34;;;7.13;68.57
27144;BME280;14672;50.250;8.312;2024-01-30T06:32:42;100080.31;;;7.14;68.58
27144;BME280;14672;50.250;8.312;2024-01-30T06:35:08;100076.25;;;7.22;69.60
27144;BME280;14672;50.250;8.312;2024-01-30T06:37:36;100081.47;;;7.31;69.00
27144;BME280;14672;50.250;8.312;2024-01-30T06:40:02;100082.28;;;7.31;70.05
27144;BME280;14672;50.250;8.312;2024-01-30T06:42:30;100089.09;;;7.44;70.95
27144;BME280;14672;50.250;8.312;2024-01-30T06:44:56;100080.22;;;7.46;70.87
27144;BME280;14672;50.250;8.312;2024-01-30T06:47:27;100085.88;;;7.49;70.98
27144;BME280;14672;50.250;8.312;2024-01-30T06:49:54;100095.16;;;7.46;71.11
27144;BME280;14672;50.250;8.312;2024-01-30T06:52:20;100085.03;;;7.52;71.75
27144;BME280;14672;50.250;8.312;2024-01-30T06:54:46;100094.28;;;7.71;70.31
27144;BME280;14672;50.250;8.312;2024-01-30T06:57:12;100088.59;;;7.78;70.52
27144;BME280;14672;50.250;8.312;2024-01-30T06:59:39;100093.41;;;7.88;69.46
27144;BME280;14672;50.250;8.312;2024-01-30T07:02:12;100093.47;;;7.70;69.53
27144;BME280;14672;50.250;8.312;2024-01-30T07:04:38;100083.72;;;7.82;68.83
27144;BME280;14672;50.250;8.312;2024-01-30T07:07:05;100086.94;;;7.87;69.39
27144;BME280;14672;50.250;8.312;2024-01-30T07:09:31;100083.66;;;7.92;68.97
27144;BME280;14672;50.250;8.312;2024-01-30T07:11:57;100085.25;;;7.97;68.69
27144;BME280;14672;50.250;8.312;2024-01-30T07:14:25;100085.25;;;7.97;69.12
27144;BME280;14672;50.250;8.312;2024-01-30T07:16:51;100082.00;;;8.02;69.18
27144;BME280;14672;50.250;8.312;2024-01-30T07:19:17;100086.44;;;8.07;68.56
27144;BME280;14672;50.250;8.312;2024-01-30T07:21:43;100090.09;;;8.07;68.65
27144;BME280;14672;50.250;8.312;2024-01-30T07:24:09;100081.97;;;8.09;69.07
27144;BME280;14672;50.250;8.312;2024-01-30T07:26:35;100086.03;;;8.12;69.05
27144;BME280;14672;50.250;8.312;2024-01-30T07:29:01;100092.44;;;8.19;68.53
27144;BME280;14672;50.250;8.312;2024-01-30T07:31:27;100094.06;;;8.13;68.06
27144;BME280;14672;50.250;8.312;2024-01-30T07:33:53;100087.22;;;8.11;68.90
27144;BME280;14672;50.250;8.312;2024-01-30T07:36:20;100086.72;;;8.26;68.90
27144;BME280;14672;50.250;8.312;2024-01-30T07:38:46;100085.88;;;8.36;68.26
27144;BME280;14672;50.250;8.312;2024-01-30T07:41:12;100087.06;;;8.42;68.59
27144;BME280;14672;50.250;8.312;2024-01-30T07:43:38;100094.31;;;8.47;68.24
27144;BME280;14672;50.250;8.312;2024-01-30T07:46:04;100095.53;;;8.46;68.42
27144;BME280;14672;50.250;8.312;2024-01-30T07:48:33;100099.53;;;8.52;68.10
27144;BME280;14672;50.250;8.312;2024-01-30T07:50:59;100092.25;;;8.55;68.22
27144;BME280;14672;50.250;8.312;2024-01-30T07:53:25;100097.03;;;8.61;67.36
27144;BME280;14672;50.250;8.312;2024-01-30T07:55:52;100092.91;;;8.73;67.67
27144;BME280;14672;50.250;8.312;2024-01-30T07:58:18;100105.41;;;8.79;67.26
27144;BME280;14672;50.250;8.312;2024-01-30T08:00:45;100102.66;;;8.72;67.99
27144;BME280;14672;50.250;8.312;2024-01-30T08:03:10;100105.38;;;8.82;67.69
27144;BME280;14672;50.250;8.312;2024-01-30T08:05:36;100111.84;;;8.86;67.54
27144;BME280;14672;50.250;8.312;2024-01-30T08:08:03;100121.84;;;8.98;67.48
27144;BME280;14672;50.250;8.312;2024-01-30T08:10:29;100113.78;;;8.93;67.86
27144;BME280;14672;50.250;8.312;2024-01-30T08:12:55;100121.00;;;9.01;67.32
27144;BME280;14672;50.250;8.312;2024-01-30T08:15:21;100118.94;;;9.05;67.25
27144;BME280;14672;50.250;8.312;2024-01-30T08:17:46;100112.81;;;9.14;67.08
27144;BME280;14672;50.250;8.312;2024-01-30T08:20:12;100111.56;;;9.18;67.09
27144;BME280;14672;50.250;8.312;2024-01-30T08:22:40;100113.63;;;9.14;67.35
27144;BME280;14672;50.250;8.312;2024-01-30T08:25:07;100107.41;;;9.26;66.83
27144;BME280;14672;50.250;8.312;2024-01-30T08:27:33;100112.66;;;9.31;66.68
27144;BME280;14672;50.250;8.312;2024-01-30T08:30:01;100104.50;;;9.33;66.67
27144;BME280;14672;50.250;8.312;2024-01-30T08:32:27;100097.13;;;9.39;66.50
27144;BME280;14672;50.250;8.312;2024-01-30T08:34:53;100101.19;;;9.42;66.77
27144;BME280;14672;50.250;8.312;2024-01-30T08:37:19;100102.31;;;9.48;66.61
27144;BME280;14672;50.250;8.312;2024-01-30T08:39:44;100109.97;;;9.55;66.13
27144;BME280;14672;50.250;8.312;2024-01-30T08:42:10;100103.03;;;9.59;66.03
27144;BME280;14672;50.250;8.312;2024-01-30T08:44:36;100105.88;;;9.56;67.00
27144;BME280;14672;50.250;8.312;2024-01-30T08:47:02;100103.75;;;9.67;66.42
27144;BME280;14672;50.250;8.312;2024-01-30T08:49:28;100104.94;;;9.69;66.16
27144;BME280;14672;50.250;8.312;2024-01-30T08:51:54;100093.22;;;9.67;66.26
27144;BME280;14672;50.250;8.312;2024-01-30T08:54:20;100092.69;;;9.76;66.01
27144;BME280;14672;50.250;8.312;2024-01-30T08:56:46;100089.78;;;9.79;65.82
27144;BME280;14672;50.250;8.312;2024-01-30T08:59:11;100095.00;;;9.84;65.65
27144;BME280;14672;50.250;8.312;2024-01-30T09:01:37;100091.75;;;9.86;65.68
27144;BME280;14672;50.250;8.312;2024-01-30T09:04:03;100097.75;;;9.91;65.41
27144;BME280;14672;50.250;8.312;2024-01-30T09:06:29;100095.25;;;9.97;65.48
27144;BME280;14672;50.250;8.312;2024-01-30T09:08:55;100097.69;;;9.99;65.65
27144;BME280;14672;50.250;8.312;2024-01-30T09:11:21;100093.09;;;10.08;65.26
27144;BME280;14672;50.250;8.312;2024-01-30T09:13:46;100093.03;;;10.12;65.34
27144;BME280;14672;50.250;8.312;2024-01-30T09:16:12;100107.59;;;10.17;65.35
27144;BME280;14672;50.250;8.312;2024-01-30T09:18:38;100103.50;;;10.22;65.40
27144;BME280;14672;50.250;8.312;2024-01-30T09:21:04;100101.00;;;10.24;65.18
27144;BME280;14672;50.250;8.312;2024-01-30T09:23:30;100114.91;;;10.18;65.58
27144;BME280;14672;50.250;8.312;2024-01-30T09:25:56;100119.25;;;10.26;65.22
27144;BME280;14672;50.250;8.312;2024-01-30T09:28:22;100118.41;;;10.29;65.11
27144;BME280;14672;50.250;8.312;2024-01-30T09:30:51;100115.44;;;10.36;64.87
27144;BME280;14672;50.250;8.312;2024-01-30T09:33:16;100114.94;;;10.45;64.57
27144;BME280;14672;50.250;8.312;2024-01-30T09:35:42;100124.63;;;10.48;64.49
27144;BME280;14672;50.250;8.312;2024-01-30T09:38:08;100111.66;;;10.47;64.42
27144;BME280;14672;50.250;8.312;2024-01-30T09:40:34;100115.97;;;10.58;64.13
27144;BME280;14672;50.250;8.312;2024-01-30T09:42:59;100117.53;;;10.59;64.04
27144;BME280;14672;50.250;8.312;2024-01-30T09:45:26;100115.97;;;10.58;63.79
27144;BME280;14672;50.250;8.312;2024-01-30T09:47:52;100105.28;;;10.66;63.79
27144;BME280;14672;50.250;8.312;2024-01-30T09:50:19;100118.28;;;10.67;63.98
27144;BME280;14672;50.250;8.312;2024-01-30T09:52:46;100108.53;;;10.64;63.92
27144;BME280;14672;50.250;8.312;2024-01-30T09:55:13;100109.63;;;10.74;63.38
27144;BME280;14672;50.250;8.312;2024-01-30T09:57:39;100113.81;;;10.66;64.23
27144;BME280;14672;50.250;8.312;2024-01-30T10:00:06;100118.28;;;10.67;63.66
27144;BME280;14672;50.250;8.312;2024-01-30T10:02:35;100126.03;;;10.63;63.48
27144;BME280;14672;50.250;8.312;2024-01-30T10:05:02;100123.03;;;10.73;63.05
27144;BME280;14672;50.250;8.312;2024-01-30T10:07:28;100117.28;;;10.77;62.99
27144;BME280;14672;50.250;8.312;2024-01-30T10:09:54;100110.91;;;10.69;63.54
27144;BME280;14672;50.250;8.312;2024-01-30T10:12:22;100110.72;;;10.80;63.58
27144;BME280;14672;50.250;8.312;2024-01-30T10:14:48;100113.97;;;10.82;63.03
27144;BME280;14672;50.250;8.312;2024-01-30T10:17:14;100108.22;;;10.86;63.47
27144;BME280;14672;50.250;8.312;2024-01-30T10:19:41;100103.34;;;10.86;63.21
27144;BME280;14672;50.250;8.312;2024-01-30T10:22:09;100101.19;;;10.94;63.05
27144;BME280;14672;50.250;8.312;2024-01-30T10:24:34;100107.34;;;10.89;62.87
27144;BME280;14672;50.250;8.312;2024-01-30T10:27:01;100102.00;;;10.94;62.92
27144;BME280;14672;50.250;8.312;2024-01-30T10:29:29;100104.03;;;10.94;63.21
27144;BME280;14672;50.250;8.312;2024-01-30T10:32:02;100098.47;;;10.87;63.00
27144;BME280;14672;50.250;8.312;2024-01-30T10:34:29;100101.84;;;11.01;62.52
27144;BME280;14672;50.250;8.312;2024-01-30T10:37:11;100097.88;;;10.95;63.16
27144;BME280;14672;50.250;8.312;2024-01-30T10:39:44;100098.16;;;11.04;62.72
27144;BME280;14672;50.250;8.312;2024-01-30T10:42:18;100106.41;;;10.95;62.78
27144;BME280;14672;50.250;8.312;2024-01-30T10:45:07;100104.84;;;10.94;63.08
27144;BME280;14672;50.250;8.312;2024-01-30T10:47:49;100111.88;;;11.09;62.50
27144;BME280;14672;50.250;8.312;2024-01-30T10:50:19;100108.56;;;11.14;62.47
27144;BME280;14672;50.250;8.312;2024-01-30T10:52:45;100117.03;;;11.18;62.29
27144;BME280;14672;50.250;8.312;2024-01-30T10:55:12;100117.38;;;11.20;62.03
27144;BME280;14672;50.250;8.312;2024-01-30T10:57:39;100122.56;;;11.25;61.62
27144;BME280;14672;50.250;8.312;2024-01-30T11:00:13;100124.00;;;11.13;62.26
27144;BME280;14672;50.250;8.312;2024-01-30T11:02:45;100117.25;;;11.27;61.48
27144;BME280;14672;50.250;8.312;2024-01-30T11:05:12;100113.25;;;11.24;61.67
27144;BME280;14672;50.250;8.312;2024-01-30T11:07:40;100127.66;;;11.37;61.68
27144;BME280;14672;50.250;8.312;2024-01-30T11:10:07;100110.28;;;11.51;61.52
27144;BME280;14672;50.250;8.312;2024-01-30T11:12:40;100106.59;;;11.54;61.56
27144;BME280;14672;50.250;8.312;2024-01-30T11:15:16;100106.59;;;11.77;61.84
27144;BME280;14672;50.250;8.312;2024-01-30T11:17:52;100106.94;;;11.99;60.96
27144;BME280;14672;50.250;8.312;2024-01-30T11:20:30;100107.66;;;12.23;60.70
27144;BME280;14672;50.250;8.312;2024-01-30T11:22:58;100091.69;;;12.45;60.24
27144;BME280;14672;50.250;8.312;2024-01-30T11:25:25;100093.41;;;12.59;59.56
27144;BME280;14672;50.250;8.312;2024-01-30T11:27:55;100090.81;;;12.48;59.70
27144;BME280;14672;50.250;8.312;2024-01-30T11:30:30;100089.63;;;12.82;59.07
27144;BME280;14672;50.250;8.312;2024-01-30T11:33:05;100091.50;;;13.37;58.04
27144;BME280;14672;50.250;8.312;2024-01-30T11:35:33;100087.00;;;13.52;57.65
27144;BME280;14672;50.250;8.312;2024-01-30T11:38:00;100102.91;;;13.37;57.54
27144;BME280;14672;50.250;8.312;2024-01-30T11:40:30;100095.78;;;13.29;57.75
27144;BME280;14672;50.250;8.312;2024-01-30T11:42:59;100096.03;;;13.34;57.18
27144;BME280;14672;50.250;8.312;2024-01-30T11:45:27;100099.03;;;13.43;57.04
27144;BME280;14672;50.250;8.312;2024-01-30T11:47:54;100106.03;;;13.71;56.16
27144;BME280;14672;50.250;8.312;2024-01-30T11:50:20;100106.94;;;13.68;56.24
27144;BME280;14672;50.250;8.312;2024-01-30T11:52:47;100102.25;;;14.03;55.86
27144;BME280;14672;50.250;8.312;2024-01-30T11:55:14;100100.09;;;14.36;54.96
27144;BME280;14672;50.250;8.312;2024-01-30T11:57:41;100099.53;;;14.66;54.42
27144;BME280;14672;50.250;8.312;2024-01-30T12:00:17;100090.28;;;14.87;53.54
27144;BME280;14672;50.250;8.312;2024-01-30T12:02:52;100098.06;;;14.99;53.09
27144;BME280;14672;50.250;8.312;2024-01-30T12:05:22;100084.31;;;14.94;52.81
27144;BME280;14672;50.250;8.312;2024-01-30T12:07:48;100075.03;;;14.90;52.93
27144;BME280;14672;50.250;8.312;2024-01-30T12:10:14;100070.13;;;15.03;52.47
27144;BME280;14672;50.250;8.312;2024-01-30T12:12:48;100077.78;;;14.81;53.45
27144;BME280;14672;50.250;8.312;2024-01-30T12:15:16;100072.41;;;15.09;53.18
27144;BME280;14672;50.250;8.312;2024-01-30T12:17:42;100064.56;;;15.22;52.73
27144;BME280;14672;50.250;8.312;2024-01-30T12:20:14;100068.53;;;15.37;52.84
27144;BME280;14672;50.250;8.312;2024-01-30T12:22:42;100060.59;;;15.19;53.05
27144;BME280;14672;50.250;8.312;2024-01-30T12:25:17;100074.78;;;15.23;53.06
27144;BME280;14672;50.250;8.312;2024-01-30T12:27:48;100056.81;;;14.97;53.48
27144;BME280;14672;50.250;8.312;2024-01-30T12:30:19;100057.31;;;14.95;53.69
27144;BME280;14672;50.250;8.312;2024-01-30T12:32:47;100060.72;;;15.03;53.39
27144;BME280;14672;50.250;8.312;2024-01-30T12:35:19;100053.66;;;14.82;53.69
27144;BME280;14672;50.250;8.312;2024-01-30T12:37:47;100048.41;;;14.55;53.65
27144;BME280;14672;50.250;8.312;2024-01-30T12:40:17;100041.78;;;14.58;54.11
27144;BME280;14672;50.250;8.312;2024-01-30T12:42:45;100047.72;;;14.39;54.51
27144;BME280;14672;50.250;8.312;2024-01-30T12:45:14;100055.31;;;14.29;54.19
27144;BME280;14672;50.250;8.312;2024-01-30T12:47:41;100050.09;;;14.28;54.79
27144;BME280;14672;50.250;8.312;2024-01-30T12:50:07;100037.56;;;13.96;55.71
27144;BME280;14672;50.250;8.312;2024-01-30T12:52:35;100041.97;;;13.72;56.25
27144;BME280;14672;50.250;8.312;2024-01-30T12:55:01;100043.59;;;13.86;56.40
27144;BME280;14672;50.250;8.312;2024-01-30T12:57:27;100042.66;;;13.76;56.70